Time;durP1;ratioP1;P1;durP2;ratioP2;P2;SDS_P1;SDS_P2;PMS_P1;PMS_P2;Temp;Humidity;BMP_temperature;BMP_pressure;BME280_temperature;BME280_humidity;BME280_pressure;Samples;Min_cycle;Max_cycle;Signal;HPM_P1;HPM_P2
2023/12/31 00:01:17;;;;;;;620.10;555.72;;;;;;;;;;10305848;28;20030;-82
2023/12/31 00:06:17;;;;;;;607.83;543.13;;;;;;;;;;10295570;28;20061;-82
2023/12/31 00:11:17;;;;;;;631.80;567.38;;;;;;;;;;10291650;28;20018;-81
2023/12/31 00:16:17;;;;;;;597.50;533.55;;;;;;;;;;10312576;28;20065;-77
2023/12/31 00:21:18;;;;;;;590.53;526.53;;;;;;;;;;10315026;28;20053;-78
2023/12/31 00:26:19;;;;;;;555.05;501.15;;;;;;;;;;10319460;28;20317;-76
2023/12/31 00:31:19;;;;;;;574.90;521.53;;;;;;;;;;10313933;28;20259;-77
2023/12/31 00:36:19;;;;;;;654.15;586.15;;;;;;;;;;10308093;28;20017;-78
2023/12/31 00:41:19;;;;;;;649.00;578.63;;;;;;;;;;10306534;28;20037;-77
2023/12/31 00:46:20;;;;;;;583.60;522.93;;;;;;;;;;10313699;28;20078;-79
2023/12/31 00:51:21;;;;;;;650.17;574.20;;;;;;;;;;10295769;28;20030;-78
2023/12/31 00:56:21;;;;;;;642.38;557.92;;;;;;;;;;10307427;28;20034;-80
2023/12/31 01:01:21;;;;;;;618.42;542.40;;;;;;;;;;10290420;28;20026;-81
2023/12/31 01:06:21;;;;;;;635.05;549.85;;;;;;;;;;10304008;28;20265;-81
2023/12/31 01:11:22;;;;;;;640.85;555.92;;;;;;;;;;10306499;28;20048;-78
2023/12/31 01:16:22;;;;;;;647.25;538.22;;;;;;;;;;10326532;28;20030;-79
2023/12/31 01:21:22;;;;;;;592.47;471.47;;;;;;;;;;10336225;28;20351;-79
2023/12/31 01:26:24;;;;;;;665.58;515.17;;;;;;;;;;10335906;28;20018;-79
2023/12/31 01:31:24;;;;;;;558.05;444.70;;;;;;;;;;10336112;28;20022;-78
2023/12/31 01:36:24;;;;;;;485.30;433.70;;;;;;;;;;10336359;28;20037;-77
2023/12/31 01:41:24;;;;;;;288.63;269.30;;;;;;;;;;10335716;28;20077;-78
2023/12/31 01:46:29;;;;;;;248.77;233.55;;;;;;;;;;10334829;28;20022;-78
2023/12/31 01:51:29;;;;;;;246.05;230.73;;;;;;;;;;10335018;28;20300;-78
2023/12/31 01:56:31;;;;;;;288.60;269.92;;;;;;;;;;10334656;28;20057;-79
2023/12/31 02:01:32;;;;;;;234.20;219.38;;;;;;;;;;10335156;28;20097;-79
2023/12/31 02:06:33;;;;;;;171.18;159.18;;;;;;;;;;10334512;28;20026;-79
2023/12/31 02:11:34;;;;;;;15.48;8.50;;;;;;;;;;10334239;28;20089;-79
2023/12/31 02:16:34;;;;;;;15.68;13.77;;;;;;;;;;10334727;28;20093;-79
2023/12/31 02:21:35;;;;;;;15.20;7.97;;;;;;;;;;10321759;28;20312;-79
2023/12/31 02:26:35;;;;;;;13.70;8.18;;;;;;;;;;10334379;28;20022;-77
2023/12/31 02:31:36;;;;;;;15.55;9.23;;;;;;;;;;10334831;28;20026;-79
2023/12/31 02:36:36;;;;;;;15.77;12.83;;;;;;;;;;10339004;28;20030;-77
2023/12/31 02:41:36;;;;;;;18.50;16.52;;;;;;;;;;10336395;28;20566;-77
2023/12/31 02:46:36;;;;;;;21.92;19.98;;;;;;;;;;10333828;28;20073;-78
2023/12/31 02:51:37;;;;;;;43.47;40.20;;;;;;;;;;10334978;28;20030;-78
2023/12/31 02:56:41;;;;;;;135.82;126.22;;;;;;;;;;10333002;28;20302;-79
2023/12/31 03:01:41;;;;;;;103.15;97.30;;;;;;;;;;10342962;28;20080;-78
2023/12/31 03:06:41;;;;;;;118.10;111.78;;;;;;;;;;10343325;28;20331;-78
2023/12/31 03:11:41;;;;;;;240.32;222.63;;;;;;;;;;10342012;28;20089;-78
2023/12/31 03:16:45;;;;;;;252.93;235.65;;;;;;;;;;10342788;28;20246;-78
2023/12/31 03:21:45;;;;;;;16.52;14.90;;;;;;;;;;10341833;28;20373;-78
2023/12/31 03:26:45;;;;;;;11.70;5.70;;;;;;;;;;10324258;28;20030;-79
2023/12/31 03:31:45;;;;;;;14.52;12.65;;;;;;;;;;10341631;28;20388;-78
2023/12/31 03:36:46;;;;;;;31.40;29.13;;;;;;;;;;10341059;28;20037;-78
2023/12/31 03:41:47;;;;;;;11.48;8.23;;;;;;;;;;10340531;28;20212;-78
2023/12/31 03:46:48;;;;;;;115.35;107.72;;;;;;;;;;10341071;28;20033;-78
2023/12/31 03:51:48;;;;;;;264.90;248.55;;;;;;;;;;10340631;28;20030;-78
2023/12/31 03:56:48;;;;;;;192.75;181.85;;;;;;;;;;10340361;28;20046;-78
2023/12/31 04:01:55;;;;;;;334.30;312.77;;;;;;;;;;10340236;28;20026;-78
2023/12/31 04:06:56;;;;;;;337.80;311.80;;;;;;;;;;10339786;28;20030;-78
2023/12/31 04:11:56;;;;;;;99.97;94.35;;;;;;;;;;10339538;28;20025;-78
2023/12/31 04:16:56;;;;;;;232.27;219.57;;;;;;;;;;10339924;28;20019;-78
2023/12/31 04:21:56;;;;;;;300.88;283.45;;;;;;;;;;10339434;28;20076;-78
2023/12/31 04:26:57;;;;;;;126.30;119.47;;;;;;;;;;10339149;28;20036;-77
2023/12/31 04:31:58;;;;;;;11.63;6.03;;;;;;;;;;10322140;28;20246;-78
2023/12/31 04:36:58;;;;;;;11.70;6.38;;;;;;;;;;10338987;28;20025;-79
2023/12/31 04:41:58;;;;;;;16.67;9.68;;;;;;;;;;10338696;28;20030;-78
2023/12/31 04:46:58;;;;;;;16.02;6.78;;;;;;;;;;10338736;28;20014;-78
2023/12/31 04:51:58;;;;;;;19.00;13.95;;;;;;;;;;10323766;28;20027;-79
2023/12/31 04:56:59;;;;;;;29.00;26.60;;;;;;;;;;10338674;28;20045;-78
2023/12/31 05:01:59;;;;;;;14.25;8.57;;;;;;;;;;10338066;28;20026;-79
2023/12/31 05:06:59;;;;;;;29.05;26.55;;;;;;;;;;10337850;28;20026;-78
2023/12/31 05:11:59;;;;;;;243.80;226.90;;;;;;;;;;10316893;28;20098;-78
2023/12/31 05:17:00;;;;;;;517.95;477.95;;;;;;;;;;10337122;28;20261;-77
2023/12/31 05:22:00;;;;;;;19.33;14.52;;;;;;;;;;10336727;28;20014;-79
2023/12/31 05:27:00;;;;;;;19.50;10.85;;;;;;;;;;10319232;28;20022;-77
2023/12/31 05:32:00;;;;;;;21.10;11.00;;;;;;;;;;10336809;28;20026;-78
2023/12/31 05:37:01;;;;;;;23.30;11.38;;;;;;;;;;10336459;28;20385;-78
2023/12/31 05:42:01;;;;;;;20.65;11.07;;;;;;;;;;10319812;28;20018;-78
2023/12/31 05:47:02;;;;;;;24.20;11.60;;;;;;;;;;10336453;28;20261;-77
2023/12/31 05:52:03;;;;;;;27.40;12.18;;;;;;;;;;10335858;28;20029;-77
2023/12/31 05:57:03;;;;;;;26.10;13.60;;;;;;;;;;10336076;28;20359;-78
2023/12/31 06:02:04;;;;;;;22.67;12.80;;;;;;;;;;10314688;28;20142;-78
2023/12/31 06:07:04;;;;;;;23.83;13.10;;;;;;;;;;10335267;28;20213;-78
2023/12/31 06:12:04;;;;;;;26.08;12.82;;;;;;;;;;10335858;28;20300;-78
2023/12/31 06:17:05;;;;;;;23.40;13.10;;;;;;;;;;10336091;28;20034;-79
2023/12/31 06:22:05;;;;;;;24.65;13.57;;;;;;;;;;10335916;28;20236;-79
2023/12/31 06:27:05;;;;;;;33.17;12.50;;;;;;;;;;10335646;28;20023;-79
2023/12/31 06:32:06;;;;;;;24.75;13.40;;;;;;;;;;10335516;28;20207;-78
2023/12/31 06:37:06;;;;;;;25.20;13.65;;;;;;;;;;10337742;28;20224;-78
2023/12/31 06:42:06;;;;;;;20.80;11.00;;;;;;;;;;10335146;28;20082;-78
2023/12/31 06:47:06;;;;;;;20.70;12.13;;;;;;;;;;10335630;28;20089;-78
2023/12/31 06:52:07;;;;;;;26.60;12.23;;;;;;;;;;10292872;28;20018;-78
2023/12/31 06:57:08;;;;;;;25.65;13.88;;;;;;;;;;10294786;28;20264;-78
2023/12/31 07:02:08;;;;;;;27.52;15.75;;;;;;;;;;10294659;28;20117;-78
2023/12/31 07:07:09;;;;;;;32.10;16.65;;;;;;;;;;10307907;28;20027;-79
2023/12/31 07:12:09;;;;;;;35.03;13.20;;;;;;;;;;10302582;28;20034;-78
2023/12/31 07:17:09;;;;;;;25.80;14.25;;;;;;;;;;10286738;28;20030;-78
2023/12/31 07:22:09;;;;;;;28.23;15.18;;;;;;;;;;10307570;28;20205;-78
2023/12/31 07:27:10;;;;;;;27.35;14.82;;;;;;;;;;10292834;28;20216;-79
2023/12/31 07:32:10;;;;;;;29.20;15.45;;;;;;;;;;10284632;28;20463;-78
2023/12/31 07:37:10;;;;;;;36.33;16.90;;;;;;;;;;10297868;28;20033;-78
2023/12/31 07:42:10;;;;;;;39.08;21.30;;;;;;;;;;10310731;28;20049;-78
2023/12/31 07:47:11;;;;;;;44.23;21.07;;;;;;;;;;10300027;28;20019;-81
2023/12/31 07:52:11;;;;;;;49.10;22.65;;;;;;;;;;10316432;28;20307;-81
2023/12/31 07:57:11;;;;;;;41.30;23.40;;;;;;;;;;10288560;28;20073;-79
2023/12/31 08:02:12;;;;;;;45.80;25.20;;;;;;;;;;10289451;28;20030;-78
2023/12/31 08:07:12;;;;;;;39.38;23.63;;;;;;;;;;10310300;28;20201;-80
2023/12/31 08:12:13;;;;;;;37.90;18.95;;;;;;;;;;10314463;28;20354;-80
2023/12/31 08:17:13;;;;;;;32.28;15.52;;;;;;;;;;10295969;28;20046;-77
2023/12/31 08:22:13;;;;;;;23.23;11.68;;;;;;;;;;10312178;28;20193;-77
2023/12/31 08:27:13;;;;;;;26.15;14.13;;;;;;;;;;10314149;28;20312;-80
2023/12/31 08:32:18;;;;;;;27.40;14.38;;;;;;;;;;10313519;28;20014;-79
2023/12/31 08:37:18;;;;;;;25.80;14.10;;;;;;;;;;10294040;28;20011;-81
2023/12/31 08:42:18;;;;;;;33.10;15.55;;;;;;;;;;10315512;28;20026;-80
2023/12/31 08:47:18;;;;;;;28.33;15.88;;;;;;;;;;10317845;28;20371;-80
2023/12/31 08:52:18;;;;;;;30.02;17.02;;;;;;;;;;10320830;28;20019;-78
2023/12/31 08:57:19;;;;;;;33.47;16.92;;;;;;;;;;10280766;28;20066;-78
2023/12/31 09:02:20;;;;;;;36.03;15.13;;;;;;;;;;10268455;28;20050;-78
2023/12/31 09:07:20;;;;;;;28.20;15.02;;;;;;;;;;10272742;28;20027;-78
2023/12/31 09:12:21;;;;;;;36.22;15.32;;;;;;;;;;10267040;28;20046;-81
2023/12/31 09:17:23;;;;;;;27.77;13.80;;;;;;;;;;10268494;28;20042;-81
2023/12/31 09:22:24;;;;;;;32.22;14.32;;;;;;;;;;10264583;28;20015;-81
2023/12/31 09:27:24;;;;;;;165.95;155.18;;;;;;;;;;10270770;28;20029;-79
2023/12/31 09:32:25;;;;;;;52.05;47.40;;;;;;;;;;10263343;28;20094;-80
2023/12/31 09:37:25;;;;;;;74.72;69.10;;;;;;;;;;10270183;28;20023;-78
2023/12/31 09:42:33;;;;;;;39.05;29.20;;;;;;;;;;10267037;28;20090;-78
2023/12/31 09:47:33;;;;;;;;;;;;;;;;;;10254030;28;20035;-78
2023/12/31 09:52:34;;;;;;;248.60;232.93;;;;;;;;;;10266072;28;20177;-78
2023/12/31 09:57:34;;;;;;;29.98;16.60;;;;;;;;;;10284265;28;20461;-79
2023/12/31 10:02:35;;;;;;;27.00;18.92;;;;;;;;;;10305918;28;20256;-80
2023/12/31 10:07:35;;;;;;;51.03;45.92;;;;;;;;;;10309750;28;20018;-79
2023/12/31 10:12:36;;;;;;;601.50;555.42;;;;;;;;;;10301158;28;20317;-78
2023/12/31 10:17:37;;;;;;;1036.03;944.60;;;;;;;;;;10308268;28;20017;-81
2023/12/31 10:22:38;;;;;;;708.25;651.67;;;;;;;;;;10306017;28;20025;-81
2023/12/31 10:27:38;;;;;;;889.58;816.08;;;;;;;;;;10307718;28;20309;-81
2023/12/31 10:32:38;;;;;;;996.90;904.42;;;;;;;;;;10308809;28;20020;-81
2023/12/31 10:37:40;;;;;;;20.15;7.88;;;;;;;;;;10312686;28;20322;-81
2023/12/31 10:42:40;;;;;;;15.95;8.23;;;;;;;;;;10308076;28;20006;-81
2023/12/31 10:47:43;;;;;;;17.65;11.60;;;;;;;;;;10302800;28;20010;-80
2023/12/31 10:52:45;;;;;;;19.50;9.32;;;;;;;;;;10309457;28;20065;-81
2023/12/31 10:57:45;;;;;;;12.73;7.80;;;;;;;;;;10314135;28;20941;-81
2023/12/31 11:02:46;;;;;;;14.90;8.10;;;;;;;;;;10305736;28;20065;-82
2023/12/31 11:07:46;;;;;;;89.55;69.28;;;;;;;;;;10301025;28;20027;-80
2023/12/31 11:12:48;;;;;;;47.80;39.33;;;;;;;;;;10312092;28;20085;-82
2023/12/31 11:17:48;;;;;;;13.65;8.07;;;;;;;;;;10325141;28;20026;-84
2023/12/31 11:23:07;;;;;;;11.57;7.30;;;;;;;;;;10312713;28;20026;-84
2023/12/31 11:28:07;;;;;;;9.82;6.93;;;;;;;;;;10323636;28;20033;-83
2023/12/31 11:33:08;;;;;;;6.70;4.63;;;;;;;;;;10318916;28;20038;-84
2023/12/31 11:38:08;;;;;;;9.23;5.88;;;;;;;;;;10308441;28;20019;-84
2023/12/31 11:43:09;;;;;;;9.20;4.55;;;;;;;;;;10318772;28;20212;-83
2023/12/31 11:48:24;;;;;;;13.57;12.10;;;;;;;;;;10325184;28;20072;-82
2023/12/31 11:53:27;;;;;;;9.45;5.32;;;;;;;;;;10326036;28;20018;-84
2023/12/31 11:58:28;;;;;;;11.50;5.78;;;;;;;;;;10319172;28;20042;-84
2023/12/31 12:03:28;;;;;;;12.32;5.60;;;;;;;;;;10313973;28;20216;-81
2023/12/31 12:08:29;;;;;;;11.50;6.63;;;;;;;;;;10301607;28;20026;-83
2023/12/31 12:13:30;;;;;;;18.73;7.30;;;;;;;;;;10320443;28;20023;-81
2023/12/31 12:18:30;;;;;;;14.43;7.97;;;;;;;;;;10313843;28;20247;-83
2023/12/31 12:23:30;;;;;;;14.15;8.40;;;;;;;;;;10320077;28;20014;-82
2023/12/31 12:28:31;;;;;;;23.05;16.52;;;;;;;;;;10313983;28;20085;-84
2023/12/31 12:33:31;;;;;;;16.13;9.17;;;;;;;;;;10316743;28;20220;-82
2023/12/31 12:38:31;;;;;;;11.93;6.75;;;;;;;;;;10315929;28;20174;-82
2023/12/31 12:43:32;;;;;;;21.35;7.32;;;;;;;;;;10309501;28;20260;-82
2023/12/31 12:48:38;;;;;;;11.02;6.43;;;;;;;;;;10312136;28;20061;-83
2023/12/31 12:53:38;;;;;;;8.82;5.90;;;;;;;;;;10310436;28;20197;-82
2023/12/31 12:58:39;;;;;;;10.98;4.80;;;;;;;;;;10298711;28;20030;-85
2023/12/31 13:03:39;;;;;;;10.40;5.30;;;;;;;;;;10299611;28;20042;-82
2023/12/31 13:08:39;;;;;;;9.03;5.03;;;;;;;;;;10308927;28;20022;-84
2023/12/31 13:13:39;;;;;;;6.68;4.13;;;;;;;;;;10310405;28;20031;-83
2023/12/31 13:18:40;;;;;;;8.50;4.03;;;;;;;;;;10298430;28;20379;-83
2023/12/31 13:23:40;;;;;;;9.32;4.78;;;;;;;;;;10309074;28;20089;-84
2023/12/31 13:28:40;;;;;;;7.45;4.53;;;;;;;;;;10314375;28;20022;-84
2023/12/31 13:33:46;;;;;;;9.27;5.60;;;;;;;;;;10293136;28;20033;-83
2023/12/31 13:38:46;;;;;;;14.88;5.97;;;;;;;;;;10307487;28;20113;-83
2023/12/31 13:43:46;;;;;;;12.65;5.43;;;;;;;;;;10316998;28;20186;-83
2023/12/31 13:48:47;;;;;;;14.95;12.57;;;;;;;;;;10311702;28;20010;-83
2023/12/31 13:53:47;;;;;;;12.70;6.50;;;;;;;;;;10298527;28;20038;-83
2023/12/31 13:58:47;;;;;;;13.65;6.78;;;;;;;;;;10306427;28;20241;-83
2023/12/31 14:03:48;;;;;;;16.60;6.90;;;;;;;;;;10317203;28;20401;-84
2023/12/31 14:08:48;;;;;;;15.23;6.85;;;;;;;;;;10299015;28;20359;-83
2023/12/31 14:13:48;;;;;;;20.75;9.90;;;;;;;;;;10290992;28;20219;-83
2023/12/31 14:18:48;;;;;;;17.88;12.50;;;;;;;;;;10307128;28;20077;-82
2023/12/31 14:23:49;;;;;;;32.88;10.43;;;;;;;;;;10308426;28;20025;-82
2023/12/31 14:28:49;;;;;;;17.90;9.40;;;;;;;;;;10286235;28;20018;-82
2023/12/31 14:33:50;;;;;;;22.23;8.57;;;;;;;;;;10297070;28;20338;-83
2023/12/31 14:38:50;;;;;;;21.20;9.20;;;;;;;;;;10315770;28;20022;-83
2023/12/31 14:43:52;;;;;;;18.10;9.25;;;;;;;;;;10309323;28;20334;-83
2023/12/31 14:48:52;;;;;;;53.70;48.65;;;;;;;;;;10289923;28;20022;-83
2023/12/31 14:53:52;;;;;;;205.48;192.80;;;;;;;;;;10328098;28;20081;-83
2023/12/31 14:58:54;;;;;;;47.45;42.40;;;;;;;;;;10319272;28;20045;-81
2023/12/31 15:03:57;;;;;;;33.55;14.50;;;;;;;;;;10328145;28;20042;-82
2023/12/31 15:09:00;;;;;;;24.95;12.70;;;;;;;;;;10311995;28;20026;-81
2023/12/31 15:14:00;;;;;;;371.55;344.85;;;;;;;;;;10312265;28;20041;-87
2023/12/31 15:19:00;;;;;;;433.38;405.13;;;;;;;;;;10305271;28;20017;-82
2023/12/31 15:24:00;;;;;;;545.35;500.80;;;;;;;;;;10311659;28;20021;-81
2023/12/31 15:29:01;;;;;;;49.45;44.75;;;;;;;;;;10319638;28;20037;-81
2023/12/31 15:34:01;;;;;;;36.67;13.35;;;;;;;;;;10318993;28;20085;-80
2023/12/31 15:39:02;;;;;;;30.67;15.47;;;;;;;;;;10295734;28;20031;-80
2023/12/31 15:44:02;;;;;;;36.72;17.92;;;;;;;;;;10304168;28;20499;-81
2023/12/31 15:49:03;;;;;;;44.97;16.67;;;;;;;;;;10303293;28;20106;-82
2023/12/31 15:54:04;;;;;;;32.47;15.70;;;;;;;;;;10323036;28;20562;-85
2023/12/31 15:59:05;;;;;;;48.08;19.08;;;;;;;;;;10291553;28;20045;-84
2023/12/31 16:04:05;;;;;;;46.90;17.52;;;;;;;;;;10312113;28;20029;-79
2023/12/31 16:09:08;;;;;;;96.65;79.18;;;;;;;;;;10319740;28;20018;-84
2023/12/31 16:14:09;;;;;;;58.47;22.27;;;;;;;;;;10323706;28;20212;-84
2023/12/31 16:19:09;;;;;;;51.05;23.20;;;;;;;;;;10312521;28;20043;-84
2023/12/31 16:24:09;;;;;;;79.57;22.07;;;;;;;;;;10314675;28;20023;-83
2023/12/31 16:29:10;;;;;;;47.00;23.05;;;;;;;;;;10316685;28;20317;-80
2023/12/31 16:34:10;;;;;;;71.40;53.97;;;;;;;;;;10322036;28;20022;-81
2023/12/31 16:39:10;;;;;;;63.00;21.97;;;;;;;;;;10319926;28;21093;-82
2023/12/31 16:44:10;;;;;;;57.03;28.10;;;;;;;;;;10313596;28;20023;-81
2023/12/31 16:49:12;;;;;;;59.57;22.20;;;;;;;;;;10317258;28;20077;-79
2023/12/31 16:54:12;;;;;;;63.45;24.50;;;;;;;;;;10315831;28;20087;-81
2023/12/31 16:59:12;;;;;;;65.80;23.40;;;;;;;;;;10312401;28;20240;-81
2023/12/31 17:04:13;;;;;;;127.93;115.80;;;;;;;;;;10315789;28;20015;-82
2023/12/31 17:09:14;;;;;;;186.30;171.43;;;;;;;;;;10307957;28;20483;-81
2023/12/31 17:14:15;;;;;;;100.32;88.25;;;;;;;;;;10317263;28;20290;-85
2023/12/31 17:19:15;;;;;;;48.67;22.83;;;;;;;;;;10294580;28;20460;-85
2023/12/31 17:24:20;;;;;;;367.92;343.20;;;;;;;;;;10312726;28;20090;-92
2023/12/31 17:29:21;;;;;;;28.52;11.98;;;;;;;;;;10311440;28;20021;-81
2023/12/31 17:34:21;;;;;;;717.50;652.78;;;;;;;;;;10315522;28;20025;-83
2023/12/31 17:39:21;;;;;;;657.88;605.42;;;;;;;;;;10310687;28;20015;-82
2023/12/31 17:44:22;;;;;;;22.95;10.68;;;;;;;;;;10312970;28;20029;-82
2023/12/31 17:49:22;;;;;;;18.42;9.80;;;;;;;;;;10305392;28;20525;-81
2023/12/31 17:54:22;;;;;;;20.38;8.77;;;;;;;;;;10328995;28;20081;-81
2023/12/31 17:59:22;;;;;;;21.60;10.15;;;;;;;;;;10308435;28;20559;-80
2023/12/31 18:04:22;;;;;;;20.40;10.98;;;;;;;;;;10311345;28;20037;-80
2023/12/31 18:09:23;;;;;;;35.40;13.02;;;;;;;;;;10286938;28;20025;-84
2023/12/31 18:14:23;;;;;;;18.05;8.75;;;;;;;;;;10308829;28;20026;-81
2023/12/31 18:19:23;;;;;;;21.67;9.43;;;;;;;;;;10315192;28;20014;-92
2023/12/31 18:24:24;;;;;;;20.60;8.55;;;;;;;;;;10309761;28;20219;-81
2023/12/31 18:29:26;;;;;;;16.52;8.57;;;;;;;;;;10311402;28;20105;-88
2023/12/31 18:34:27;;;;;;;22.48;9.88;;;;;;;;;;10294880;28;20329;-87
2023/12/31 18:39:27;;;;;;;21.13;9.88;;;;;;;;;;10293994;28;20248;-80
2023/12/31 18:44:27;;;;;;;27.90;12.00;;;;;;;;;;10307730;28;20320;-87
2023/12/31 18:49:34;;;;;;;21.27;10.80;;;;;;;;;;10301680;28;20022;-84
2023/12/31 18:54:35;;;;;;;24.40;11.45;;;;;;;;;;10327269;28;20053;-88
2023/12/31 18:59:38;;;;;;;30.77;13.57;;;;;;;;;;10323717;28;20125;-93
2023/12/31 19:04:39;;;;;;;33.22;13.63;;;;;;;;;;10305279;28;20379;-86
2023/12/31 19:09:39;;;;;;;31.92;14.35;;;;;;;;;;10307931;28;20033;-86
2023/12/31 19:14:39;;;;;;;26.90;16.00;;;;;;;;;;10318799;28;20052;-91
2023/12/31 19:19:40;;;;;;;129.60;65.33;;;;;;;;;;10313358;28;20824;-93
2023/12/31 19:24:40;;;;;;;128.33;66.43;;;;;;;;;;10298361;28;20018;-88
2023/12/31 19:29:41;;;;;;;86.57;41.38;;;;;;;;;;10296716;28;20288;-89
2023/12/31 19:34:41;;;;;;;40.30;19.65;;;;;;;;;;10313173;28;20022;-86
2023/12/31 19:39:42;;;;;;;62.60;26.45;;;;;;;;;;10302450;28;20018;-85
2023/12/31 19:44:43;;;;;;;52.63;27.67;;;;;;;;;;10310286;28;20030;-85
2023/12/31 19:49:46;;;;;;;62.70;29.23;;;;;;;;;;10335018;28;20026;-84
2023/12/31 19:54:47;;;;;;;92.20;47.65;;;;;;;;;;10321192;28;20026;-79
2023/12/31 19:59:49;;;;;;;90.88;42.00;;;;;;;;;;10323278;28;20042;-85
2023/12/31 20:04:50;;;;;;;88.47;36.80;;;;;;;;;;10314847;28;20049;-81
2023/12/31 20:09:51;;;;;;;106.57;45.73;;;;;;;;;;10322206;28;20053;-84
2023/12/31 20:14:51;;;;;;;76.07;33.80;;;;;;;;;;10318432;28;20026;-87
2023/12/31 20:19:51;;;;;;;84.67;35.70;;;;;;;;;;10334800;28;20023;-87
2023/12/31 20:24:53;;;;;;;73.72;29.50;;;;;;;;;;10321192;28;20019;-86
2023/12/31 20:29:56;;;;;;;72.53;30.92;;;;;;;;;;10321737;28;20039;-81
2023/12/31 20:34:58;;;;;;;56.67;28.48;;;;;;;;;;10308766;28;20085;-82
2023/12/31 20:40:01;;;;;;;61.20;26.63;;;;;;;;;;10317607;28;20351;-84
2023/12/31 20:45:01;;;;;;;70.35;30.92;;;;;;;;;;10318237;28;20248;-81
2023/12/31 20:50:04;;;;;;;65.40;30.65;;;;;;;;;;10318529;28;20087;-80
2023/12/31 20:55:06;;;;;;;62.22;30.83;;;;;;;;;;10291282;28;20093;-81
2023/12/31 21:00:08;;;;;;;58.50;31.17;;;;;;;;;;10316529;28;20034;-82
2023/12/31 21:05:09;;;;;;;68.80;32.20;;;;;;;;;;10298637;28;20041;-83
2023/12/31 21:10:09;;;;;;;79.93;34.92;;;;;;;;;;10315771;28;20446;-81
2023/12/31 21:15:09;;;;;;;90.53;39.38;;;;;;;;;;10319777;28;20128;-83
2023/12/31 21:20:10;;;;;;;87.10;38.55;;;;;;;;;;10316088;28;20380;-82
2023/12/31 21:25:10;;;;;;;82.47;38.97;;;;;;;;;;10309290;28;20036;-83
2023/12/31 21:30:11;;;;;;;95.03;43.63;;;;;;;;;;10316073;28;20536;-84
2023/12/31 21:35:11;;;;;;;104.43;47.17;;;;;;;;;;10296085;28;20034;-82
2023/12/31 21:40:11;;;;;;;96.95;45.50;;;;;;;;;;10317132;28;20321;-82
2023/12/31 21:45:15;;;;;;;110.30;49.97;;;;;;;;;;10295469;28;20239;-79
2023/12/31 21:50:16;;;;;;;94.97;46.63;;;;;;;;;;10309105;28;20029;-79
2023/12/31 21:55:16;;;;;;;123.00;57.50;;;;;;;;;;10314659;28;20026;-81
2023/12/31 22:00:17;;;;;;;101.93;48.17;;;;;;;;;;10318885;28;20050;-81
2023/12/31 22:05:17;;;;;;;222.77;88.07;;;;;;;;;;10305429;28;20241;-86
2023/12/31 22:10:27;;;;;;;613.78;360.63;;;;;;;;;;10321274;28;20038;-89
2023/12/31 22:15:29;;;;;;;196.30;98.32;;;;;;;;;;10313997;28;20033;-90
2023/12/31 22:20:30;;;;;;;189.65;99.75;;;;;;;;;;10311397;28;20014;-86
2023/12/31 22:25:33;;;;;;;244.35;127.47;;;;;;;;;;10304233;28;20483;-80
2023/12/31 22:30:33;;;;;;;216.88;107.82;;;;;;;;;;10298656;28;20018;-80
2023/12/31 22:35:33;;;;;;;374.37;165.93;;;;;;;;;;10309606;28;20027;-82
2023/12/31 22:40:35;;;;;;;335.77;178.27;;;;;;;;;;10307105;28;20015;-79
2023/12/31 22:45:36;;;;;;;208.35;91.10;;;;;;;;;;10293509;28;20018;-85
2023/12/31 22:50:37;;;;;;;193.35;91.57;;;;;;;;;;10311147;28;20026;-87
2023/12/31 22:55:37;;;;;;;288.25;140.07;;;;;;;;;;10302938;28;20057;-84
2023/12/31 23:00:38;;;;;;;270.10;131.85;;;;;;;;;;10307302;28;20038;-86
2023/12/31 23:05:39;;;;;;;278.35;142.27;;;;;;;;;;10322330;28;20030;-85
2023/12/31 23:10:39;;;;;;;296.50;145.90;;;;;;;;;;10314349;28;20026;-82
2023/12/31 23:15:40;;;;;;;301.57;151.47;;;;;;;;;;10313940;28;20193;-91
2023/12/31 23:20:46;;;;;;;293.35;139.68;;;;;;;;;;10309251;28;20060;-86
2023/12/31 23:25:48;;;;;;;261.60;125.55;;;;;;;;;;10321852;28;20069;-86
2023/12/31 23:30:49;;;;;;;296.85;145.48;;;;;;;;;;10305174;28;20292;-86
2023/12/31 23:35:49;;;;;;;275.75;140.48;;;;;;;;;;10313180;28;20093;-89
2023/12/31 23:40:49;;;;;;;273.48;129.18;;;;;;;;;;10301168;28;20029;-86
2023/12/31 23:45:50;;;;;;;262.50;129.13;;;;;;;;;;10322401;28;20071;-83
2023/12/31 23:50:51;;;;;;;314.75;162.10;;;;;;;;;;10315161;28;20332;-83
2023/12/31 23:55:51;;;;;;;267.38;129.73;;;;;;;;;;10313442;28;20082;-78
